• Join FlightAware (Why Join?)
  • Login
  • US Flag 
02:20AM EDT


 

Airport Tracker/Info


-or-


 

Live Flight TrackerFlight Track Log ✈ TDA18 ✈ 08-Aug-2014 ✈ KMCO - MYAT / TCB

Flight Track Log - Related Links

Times and Time Zones

All times are in EDT time to prevent confusion due to time zone crossing. See the TDA18 flight status page for this flight to view local times or setup timezone preferences in your user account.

Time Position Orientation Groundspeed Altitude Reporting Facility
EDT Latitude Longitude Course Direction KTS MPH feet Rate Location/Type
10:16AM 28.4167 -81.3167 90° East 93 107 400  Level Orlando TRACON
10:17AM 28.4167 -81.3000 90° East 98 113 900 420 Climbing Orlando TRACON
10:18AM 28.4167 -81.2667 90° East 128 147 1,200 360 Climbing Orlando TRACON
10:19AM 28.4167 -81.2167 90° East 130 150 1,700 420 Climbing Orlando TRACON
10:20AM 28.4333 -81.1833 60° Northeast 134 154 2,100 420 Climbing Orlando TRACON
10:21AM 28.4333 -81.1333 90° East 134 154 2,600 420 Climbing Orlando TRACON
10:22AM 28.4333 -81.1000 90° East 129 148 3,000 420 Climbing Orlando TRACON
10:23AM 28.4167 -81.0667 120° Southeast 123 142 3,500 360 Climbing Orlando TRACON
10:24AM 28.4000 -81.0333 120° Southeast 123 142 3,800 360 Climbing Orlando TRACON
10:25AM 28.4000 -81.0000 90° East 122 140 4,200 360 Climbing Orlando TRACON
10:26AM 28.3833 -80.9667 120° Southeast 124 143 4,600 360 Climbing Orlando TRACON
10:27AM 28.3667 -80.9333 120° Southeast 127 146 4,900 240 Climbing Orlando TRACON
10:28AM 28.3544 -80.9181 132° Southeast 124 143 5,000 300 Climbing Miami Center
10:29AM 28.3319 -80.8858 128° Southeast 127 146 5,400 360 Climbing Miami Center
10:29AM 28.3167 -80.8667 132° Southeast 129 148 5,600 300 Climbing Orlando TRACON
10:31AM 28.2864 -80.8144 123° Southeast 127 146 6,100 300 Climbing Miami Center
10:32AM 28.2636 -80.7819 129° Southeast 127 146 6,500 300 Climbing Miami Center
10:33AM 28.2414 -80.7497 128° Southeast 128 147 6,800 240 Climbing Miami Center
10:34AM 28.2175 -80.7167 129° Southeast 131 151 7,000 240 Climbing Miami Center
10:35AM 28.1961 -80.6794 123° Southeast 136 157 7,300 240 Climbing Miami Center
10:36AM 28.1761 -80.6414 121° Southeast 137 158 7,500 180 Climbing Miami Center
10:37AM 28.1567 -80.6033 120° Southeast 138 159 7,700 240 Climbing Miami Center
10:38AM 28.1328 -80.5581 121° Southeast 138 159 8,000 240 Climbing Miami Center
10:39AM 28.1114 -80.5186 122° Southeast 138 159 8,300 240 Climbing Miami Center
10:40AM 28.0925 -80.4822 120° Southeast 138 159 8,500 180 Climbing Miami Center
10:41AM 28.0714 -80.4442 122° Southeast 140 161 8,700 180 Climbing Miami Center
10:42AM 28.0519 -80.4064 120° Southeast 140 161 8,900 240 Climbing Miami Center
10:43AM 28.0314 -80.3686 122° Southeast 140 161 9,200 240 Climbing Miami Center
10:44AM 28.0056 -80.3242 123° Southeast 140 161 9,500 240 Climbing Miami Center
10:45AM 27.9844 -80.2869 123° Southeast 140 161 9,700 240 Climbing Miami Center
10:46AM 27.9628 -80.2494 123° Southeast 141 162 10,000 240 Climbing Miami Center
10:47AM 27.9406 -80.2122 124° Southeast 141 162 10,200 180 Climbing Miami Center
10:48AM 27.9189 -80.1753 124° Southeast 142 163 10,400 240 Climbing Miami Center
10:49AM 27.8967 -80.1378 124° Southeast 142 163 10,700 240 Climbing Miami Center
10:50AM 27.8692 -80.0947 126° Southeast 142 163 11,000 240 Climbing Miami Center
10:51AM 27.8439 -80.0578 128° Southeast 142 163 11,200 180 Climbing Miami Center
10:52AM 27.8194 -80.0211 127° Southeast 142 163 11,400 240 Climbing Miami Center
10:53AM 27.7964 -79.9881 128° Southeast 141 162 11,700 240 Climbing Miami Center
10:54AM 27.7711 -79.9522 129° Southeast 141 162 11,900 180 Climbing Miami Center
10:55AM 27.7433 -79.9206 135° Southeast 138 159 12,100 240 Climbing Miami Center
10:57AM 27.7147 -79.8900 137° Southeast 136 157 12,400 240 Climbing Miami Center
10:58AM 27.6878 -79.8608 136° Southeast 132 152 12,600 240 Climbing Miami Center
10:59AM 27.6606 -79.8317 136° Southeast 130 150 12,900 180 Climbing Miami Center
11:00AM 27.6342 -79.8033 136° Southeast 128 147 13,000 60 Climbing Miami Center
11:01AM 27.6086 -79.7761 137° Southeast 128 147 13,100  Climbing Miami Center
11:02AM 27.5750 -79.7492 145° Southeast 140 161 13,100  Level Miami Center
11:03AM 27.5408 -79.7200 143° Southeast 147 169 13,100  Level Miami Center
11:04AM 27.5053 -79.6894 143° Southeast 149 171 13,100  Level Miami Center
11:05AM 27.4725 -79.6550 137° Southeast 153 176 13,100  Level Miami Center
11:06AM 27.4436 -79.6200 133° Southeast 148 170 13,100  Level Miami Center
11:07AM 27.4142 -79.5861 134° Southeast 147 169 13,100  Level Miami Center
11:08AM 27.3886 -79.5558 134° Southeast 139 160 13,100  Level Miami Center
11:09AM 27.3622 -79.5242 133° Southeast 138 159 13,100  Level Miami Center
11:10AM 27.3369 -79.4914 131° Southeast 135 155 13,100  Level Miami Center
11:11AM 27.3097 -79.4603 135° Southeast 135 155 13,100  Level Miami Center
11:12AM 27.2844 -79.4297 133° Southeast 132 152 13,100  Level Miami Center
11:13AM 27.2586 -79.4000 134° Southeast 129 148 13,100  Level Miami Center
11:14AM 27.2344 -79.3667 129° Southeast 131 151 13,100  Level Miami Center
11:15AM 27.2278 -79.3244 100° East 140 161 13,100  Level Miami Center
11:16AM 27.2206 -79.2814 101° East 141 162 13,100  Level Miami Center
11:17AM 27.2092 -79.2378 106° East 140 161 13,100 -60 Level Miami Center
11:18AM 27.1989 -79.1922 104° East 141 162 13,000 -240 Descending Miami Center
11:19AM 27.1806 -79.1467 114° Southeast 154 177 12,700 -420 Descending Miami Center
11:20AM 27.1567 -79.1033 122° Southeast 156 180 12,200 -480 Descending Miami Center
11:21AM 27.1394 -79.0522 111° Southeast 165 190 11,700 -300 Descending Miami Center
11:22AM 27.1225 -79.0022 111° Southeast 165 190 11,600 -60 Descending Miami Center
11:23AM 27.1150 -78.9558 100° East 146 168 11,600  Level Miami Center
11:24AM 27.1039 -78.9161 107° East 144 166 11,600  Level Miami Center
11:26AM 27.0950 -78.8731 103° East 139 160 11,600  Level Miami Center
11:27AM 27.0856 -78.8342 105° East 138 159 11,600  Level Miami Center
11:28AM 27.0758 -78.7939 105° East 131 151 11,600  Level Miami Center
11:29AM 27.0661 -78.7539 105° East 131 151 11,600  Level Miami Center
11:30AM 27.0544 -78.7039 105° East 133 153 11,600  Level Miami Center
11:31AM 27.0464 -78.6619 102° East 138 159 11,600  Level Miami Center
11:32AM 27.0369 -78.6214 105° East 138 159 11,600  Level Miami Center
11:33AM 27.0264 -78.5808 106° East 138 159 11,600  Level Miami Center
11:34AM 27.0161 -78.5392 105° East 138 159 11,600 -180 Level Miami Center
11:35AM 27.0058 -78.4958 105° East 138 159 11,300 -300 Descending Miami Center
11:36AM 26.9931 -78.4375 104° East 148 170 11,000 -420 Descending Miami Center
11:37AM 26.9797 -78.3853 106° East 164 189 10,500 -480 Descending Miami Center
11:38AM 26.9678 -78.3322 104° East 170 196 10,100 -420 Descending Miami Center
11:39AM 26.9547 -78.2789 105° East 171 197 9,700 -480 Descending Miami Center
11:40AM 26.9428 -78.2253 104° East 173 199 9,200 -480 Descending Miami Center
11:41AM 26.9306 -78.1728 105° East 173 199 8,800 -480 Descending Miami Center
11:42AM 26.9186 -78.1200 104° East 173 199 8,300 -480 Descending Miami Center